sensor_id;sensor_type;location;lat;lon;timestamp;P1;durP1;ratioP1;P2;durP2;ratioP2
55756;SDS011;41676;44.610;44.078;2022-11-20T00:08:07;34.03;;;21.17;;
55756;SDS011;41676;44.610;44.078;2022-11-20T00:13:08;38.35;;;23.77;;
55756;SDS011;41676;44.610;44.078;2022-11-20T00:23:22;36.17;;;22.15;;
55756;SDS011;41676;44.610;44.078;2022-11-20T00:33:55;26.77;;;18.02;;
55756;SDS011;41676;44.610;44.078;2022-11-20T00:45:11;35.00;;;21.48;;
55756;SDS011;41676;44.610;44.078;2022-11-20T00:50:12;30.90;;;19.27;;
55756;SDS011;41676;44.610;44.078;2022-11-20T00:55:13;40.70;;;22.65;;
55756;SDS011;41676;44.610;44.078;2022-11-20T01:00:14;35.22;;;22.83;;
55756;SDS011;41676;44.610;44.078;2022-11-20T01:10:46;66.03;;;33.20;;
55756;SDS011;41676;44.610;44.078;2022-11-20T01:22:02;119.50;;;34.20;;
55756;SDS011;41676;44.610;44.078;2022-11-20T01:27:03;153.88;;;30.40;;
55756;SDS011;41676;44.610;44.078;2022-11-20T01:32:04;158.30;;;30.33;;
55756;SDS011;41676;44.610;44.078;2022-11-20T01:37:05;308.45;;;27.85;;
55756;SDS011;41676;44.610;44.078;2022-11-20T01:42:06;110.47;;;22.13;;
55756;SDS011;41676;44.610;44.078;2022-11-20T01:47:33;93.40;;;22.17;;
55756;SDS011;41676;44.610;44.078;2022-11-20T01:52:50;158.70;;;23.35;;
55756;SDS011;41676;44.610;44.078;2022-11-20T01:57:52;99.50;;;20.77;;
55756;SDS011;41676;44.610;44.078;2022-11-20T02:02:54;93.53;;;22.30;;
55756;SDS011;41676;44.610;44.078;2022-11-20T02:07:59;45.08;;;21.63;;
55756;SDS011;41676;44.610;44.078;2022-11-20T02:13:00;103.57;;;23.35;;
55756;SDS011;41676;44.610;44.078;2022-11-20T02:18:20;236.73;;;24.52;;
55756;SDS011;41676;44.610;44.078;2022-11-20T02:23:27;200.25;;;23.60;;
55756;SDS011;41676;44.610;44.078;2022-11-20T02:28:40;156.00;;;22.48;;
55756;SDS011;41676;44.610;44.078;2022-11-20T02:33:41;78.20;;;18.63;;
55756;SDS011;41676;44.610;44.078;2022-11-20T02:38:41;72.43;;;36.42;;
55756;SDS011;41676;44.610;44.078;2022-11-20T02:43:53;53.03;;;21.55;;
55756;SDS011;41676;44.610;44.078;2022-11-20T02:48:53;57.20;;;22.08;;
55756;SDS011;41676;44.610;44.078;2022-11-20T02:53:54;41.47;;;21.10;;
55756;SDS011;41676;44.610;44.078;2022-11-20T02:58:55;72.90;;;20.85;;
55756;SDS011;41676;44.610;44.078;2022-11-20T03:03:56;89.75;;;22.05;;
55756;SDS011;41676;44.610;44.078;2022-11-20T03:08:57;81.20;;;21.38;;
55756;SDS011;41676;44.610;44.078;2022-11-20T03:14:01;149.38;;;27.20;;
55756;SDS011;41676;44.610;44.078;2022-11-20T03:19:02;87.22;;;22.10;;
55756;SDS011;41676;44.610;44.078;2022-11-20T03:29:39;72.43;;;20.35;;
55756;SDS011;41676;44.610;44.078;2022-11-20T03:34:40;110.35;;;21.95;;
55756;SDS011;41676;44.610;44.078;2022-11-20T03:39:41;41.97;;;16.70;;
55756;SDS011;41676;44.610;44.078;2022-11-20T03:44:41;72.45;;;20.67;;
55756;SDS011;41676;44.610;44.078;2022-11-20T03:49:42;60.30;;;18.67;;
55756;SDS011;41676;44.610;44.078;2022-11-20T03:54:43;60.25;;;21.80;;
55756;SDS011;41676;44.610;44.078;2022-11-20T04:12:02;17.65;;;12.75;;
55756;SDS011;41676;44.610;44.078;2022-11-20T04:17:03;22.92;;;13.50;;
55756;SDS011;41676;44.610;44.078;2022-11-20T04:22:04;19.75;;;13.38;;
55756;SDS011;41676;44.610;44.078;2022-11-20T04:27:05;19.35;;;12.60;;
55756;SDS011;41676;44.610;44.078;2022-11-20T04:32:05;23.92;;;13.07;;
55756;SDS011;41676;44.610;44.078;2022-11-20T04:37:06;18.75;;;14.07;;
55756;SDS011;41676;44.610;44.078;2022-11-20T04:42:08;26.77;;;14.55;;
55756;SDS011;41676;44.610;44.078;2022-11-20T04:47:28;17.17;;;13.48;;
55756;SDS011;41676;44.610;44.078;2022-11-20T04:52:29;23.05;;;14.95;;
55756;SDS011;41676;44.610;44.078;2022-11-20T04:57:29;24.05;;;14.65;;
55756;SDS011;41676;44.610;44.078;2022-11-20T05:02:30;17.73;;;12.45;;
55756;SDS011;41676;44.610;44.078;2022-11-20T05:07:32;15.13;;;12.13;;
55756;SDS011;41676;44.610;44.078;2022-11-20T05:12:32;20.10;;;14.95;;
55756;SDS011;41676;44.610;44.078;2022-11-20T05:17:33;20.25;;;14.75;;
55756;SDS011;41676;44.610;44.078;2022-11-20T05:22:34;21.15;;;15.80;;
55756;SDS011;41676;44.610;44.078;2022-11-20T05:27:34;21.42;;;16.10;;
55756;SDS011;41676;44.610;44.078;2022-11-20T05:32:35;28.95;;;18.10;;
55756;SDS011;41676;44.610;44.078;2022-11-20T05:37:36;32.20;;;21.05;;
55756;SDS011;41676;44.610;44.078;2022-11-20T05:42:37;36.33;;;21.95;;
55756;SDS011;41676;44.610;44.078;2022-11-20T05:47:38;28.35;;;20.05;;
55756;SDS011;41676;44.610;44.078;2022-11-20T05:52:39;30.45;;;20.17;;
55756;SDS011;41676;44.610;44.078;2022-11-20T05:57:40;28.58;;;19.63;;
55756;SDS011;41676;44.610;44.078;2022-11-20T06:02:40;29.58;;;19.45;;
55756;SDS011;41676;44.610;44.078;2022-11-20T06:07:41;28.38;;;18.27;;
55756;SDS011;41676;44.610;44.078;2022-11-20T06:17:53;34.78;;;21.55;;
55756;SDS011;41676;44.610;44.078;2022-11-20T06:22:55;44.03;;;23.25;;
55756;SDS011;41676;44.610;44.078;2022-11-20T06:27:56;43.85;;;21.38;;
55756;SDS011;41676;44.610;44.078;2022-11-20T06:32:56;37.85;;;21.80;;
55756;SDS011;41676;44.610;44.078;2022-11-20T06:37:57;33.60;;;20.77;;
55756;SDS011;41676;44.610;44.078;2022-11-20T06:42:58;44.00;;;23.30;;
55756;SDS011;41676;44.610;44.078;2022-11-20T06:54:32;43.63;;;23.35;;
55756;SDS011;41676;44.610;44.078;2022-11-20T06:59:33;47.28;;;31.02;;
55756;SDS011;41676;44.610;44.078;2022-11-20T07:04:34;42.17;;;26.08;;
55756;SDS011;41676;44.610;44.078;2022-11-20T07:09:35;31.35;;;18.15;;
55756;SDS011;41676;44.610;44.078;2022-11-20T07:14:35;25.60;;;16.90;;
55756;SDS011;41676;44.610;44.078;2022-11-20T07:19:36;23.98;;;17.88;;
55756;SDS011;41676;44.610;44.078;2022-11-20T07:30:48;44.15;;;25.42;;
55756;SDS011;41676;44.610;44.078;2022-11-20T07:35:53;46.17;;;25.45;;
55756;SDS011;41676;44.610;44.078;2022-11-20T07:40:54;38.75;;;22.67;;
55756;SDS011;41676;44.610;44.078;2022-11-20T07:45:56;34.35;;;23.83;;
55756;SDS011;41676;44.610;44.078;2022-11-20T07:50:58;38.83;;;25.98;;
55756;SDS011;41676;44.610;44.078;2022-11-20T08:02:14;30.45;;;21.75;;
55756;SDS011;41676;44.610;44.078;2022-11-20T08:07:15;26.77;;;15.55;;
55756;SDS011;41676;44.610;44.078;2022-11-20T08:12:19;26.88;;;19.15;;
55756;SDS011;41676;44.610;44.078;2022-11-20T08:17:39;28.80;;;16.35;;
55756;SDS011;41676;44.610;44.078;2022-11-20T08:22:40;17.33;;;11.63;;
55756;SDS011;41676;44.610;44.078;2022-11-20T08:27:41;18.75;;;9.65;;
55756;SDS011;41676;44.610;44.078;2022-11-20T08:38:57;15.82;;;8.38;;
55756;SDS011;41676;44.610;44.078;2022-11-20T08:49:18;14.27;;;7.03;;
55756;SDS011;41676;44.610;44.078;2022-11-20T08:54:18;8.85;;;6.13;;
55756;SDS011;41676;44.610;44.078;2022-11-20T08:59:22;9.60;;;7.00;;
55756;SDS011;41676;44.610;44.078;2022-11-20T09:09:53;9.15;;;6.72;;
55756;SDS011;41676;44.610;44.078;2022-11-20T09:14:54;9.38;;;6.88;;
55756;SDS011;41676;44.610;44.078;2022-11-20T09:19:55;14.18;;;7.47;;
55756;SDS011;41676;44.610;44.078;2022-11-20T09:31:05;12.07;;;6.68;;
55756;SDS011;41676;44.610;44.078;2022-11-20T09:36:07;12.48;;;6.35;;
55756;SDS011;41676;44.610;44.078;2022-11-20T09:41:13;10.93;;;6.18;;
55756;SDS011;41676;44.610;44.078;2022-11-20T09:58:00;12.45;;;7.15;;
55756;SDS011;41676;44.610;44.078;2022-11-20T10:03:10;13.43;;;6.55;;
55756;SDS011;41676;44.610;44.078;2022-11-20T10:08:24;10.52;;;6.40;;
55756;SDS011;41676;44.610;44.078;2022-11-20T10:24:00;11.80;;;6.07;;
55756;SDS011;41676;44.610;44.078;2022-11-20T10:29:17;11.43;;;5.22;;
55756;SDS011;41676;44.610;44.078;2022-11-20T10:34:40;9.27;;;5.10;;
55756;SDS011;41676;44.610;44.078;2022-11-20T10:50:40;8.55;;;5.40;;
55756;SDS011;41676;44.610;44.078;2022-11-20T10:55:55;14.88;;;5.53;;
55756;SDS011;41676;44.610;44.078;2022-11-20T11:17:47;9.25;;;4.65;;
55756;SDS011;41676;44.610;44.078;2022-11-20T11:28:19;8.18;;;4.32;;
55756;SDS011;41676;44.610;44.078;2022-11-20T11:33:23;7.75;;;4.07;;
55756;SDS011;41676;44.610;44.078;2022-11-20T11:38:35;11.52;;;6.03;;
55756;SDS011;41676;44.610;44.078;2022-11-20T11:49:38;22.33;;;16.00;;
55756;SDS011;41676;44.610;44.078;2022-11-20T11:55:00;12.68;;;7.10;;
55756;SDS011;41676;44.610;44.078;2022-11-20T12:00:06;23.63;;;12.65;;
55756;SDS011;41676;44.610;44.078;2022-11-20T12:11:03;17.65;;;10.60;;
55756;SDS011;41676;44.610;44.078;2022-11-20T12:15:37;22.30;;;10.43;;
55756;SDS011;41676;44.610;44.078;2022-11-20T12:20:46;44.92;;;32.85;;
55756;SDS011;41676;44.610;44.078;2022-11-20T12:32:02;67.00;;;32.55;;
55756;SDS011;41676;44.610;44.078;2022-11-20T12:43:01;34.78;;;17.10;;
55756;SDS011;41676;44.610;44.078;2022-11-20T13:05:05;31.10;;;14.07;;
55756;SDS011;41676;44.610;44.078;2022-11-20T13:10:22;103.50;;;47.63;;
55756;SDS011;41676;44.610;44.078;2022-11-20T13:15:42;41.78;;;22.02;;
55756;SDS011;41676;44.610;44.078;2022-11-20T13:20:58;32.92;;;17.60;;
55756;SDS011;41676;44.610;44.078;2022-11-20T13:26:06;30.85;;;14.15;;
55756;SDS011;41676;44.610;44.078;2022-11-20T13:31:32;33.42;;;14.00;;
55756;SDS011;41676;44.610;44.078;2022-11-20T13:36:35;48.17;;;16.65;;
55756;SDS011;41676;44.610;44.078;2022-11-20T13:41:37;79.93;;;36.05;;
55756;SDS011;41676;44.610;44.078;2022-11-20T13:46:41;78.75;;;33.78;;
55756;SDS011;41676;44.610;44.078;2022-11-20T13:51:47;67.57;;;32.97;;
55756;SDS011;41676;44.610;44.078;2022-11-20T14:01:51;72.80;;;33.85;;
55756;SDS011;41676;44.610;44.078;2022-11-20T14:06:53;78.85;;;34.88;;
55756;SDS011;41676;44.610;44.078;2022-11-20T14:11:55;98.57;;;45.53;;
55756;SDS011;41676;44.610;44.078;2022-11-20T14:22:26;135.45;;;62.70;;
55756;SDS011;41676;44.610;44.078;2022-11-20T14:27:27;66.22;;;31.55;;
55756;SDS011;41676;44.610;44.078;2022-11-20T14:32:29;49.38;;;25.25;;
55756;SDS011;41676;44.610;44.078;2022-11-20T14:37:32;39.22;;;19.50;;
55756;SDS011;41676;44.610;44.078;2022-11-20T14:42:36;46.83;;;24.10;;
55756;SDS011;41676;44.610;44.078;2022-11-20T14:47:37;61.00;;;33.80;;
55756;SDS011;41676;44.610;44.078;2022-11-20T14:52:38;49.60;;;26.52;;
55756;SDS011;41676;44.610;44.078;2022-11-20T14:57:39;44.42;;;25.02;;
55756;SDS011;41676;44.610;44.078;2022-11-20T15:02:41;55.00;;;27.58;;
55756;SDS011;41676;44.610;44.078;2022-11-20T15:07:46;51.67;;;28.35;;
55756;SDS011;41676;44.610;44.078;2022-11-20T15:12:50;28.63;;;16.25;;
55756;SDS011;41676;44.610;44.078;2022-11-20T15:17:51;19.55;;;12.38;;
55756;SDS011;41676;44.610;44.078;2022-11-20T15:22:52;29.17;;;16.30;;
55756;SDS011;41676;44.610;44.078;2022-11-20T15:27:54;35.80;;;19.02;;
55756;SDS011;41676;44.610;44.078;2022-11-20T15:32:56;36.70;;;19.95;;
55756;SDS011;41676;44.610;44.078;2022-11-20T15:37:57;33.40;;;17.77;;
55756;SDS011;41676;44.610;44.078;2022-11-20T15:42:58;29.02;;;16.20;;
55756;SDS011;41676;44.610;44.078;2022-11-20T15:48:14;24.05;;;15.45;;
55756;SDS011;41676;44.610;44.078;2022-11-20T15:53:17;30.52;;;14.75;;
55756;SDS011;41676;44.610;44.078;2022-11-20T15:58:19;30.08;;;13.93;;
55756;SDS011;41676;44.610;44.078;2022-11-20T16:03:23;19.83;;;11.43;;
55756;SDS011;41676;44.610;44.078;2022-11-20T16:08:24;19.95;;;13.45;;
55756;SDS011;41676;44.610;44.078;2022-11-20T16:13:25;22.70;;;13.02;;
55756;SDS011;41676;44.610;44.078;2022-11-20T16:18:44;13.80;;;10.00;;
55756;SDS011;41676;44.610;44.078;2022-11-20T16:23:45;15.52;;;9.82;;
55756;SDS011;41676;44.610;44.078;2022-11-20T16:28:46;15.98;;;10.05;;
55756;SDS011;41676;44.610;44.078;2022-11-20T16:33:54;18.35;;;10.13;;
55756;SDS011;41676;44.610;44.078;2022-11-20T16:39:00;18.25;;;10.63;;
55756;SDS011;41676;44.610;44.078;2022-11-20T16:44:06;16.73;;;9.90;;
55756;SDS011;41676;44.610;44.078;2022-11-20T16:49:12;19.75;;;12.00;;
55756;SDS011;41676;44.610;44.078;2022-11-20T16:54:14;22.80;;;13.02;;
55756;SDS011;41676;44.610;44.078;2022-11-20T16:59:14;22.08;;;11.77;;
55756;SDS011;41676;44.610;44.078;2022-11-20T17:04:16;17.35;;;10.70;;
55756;SDS011;41676;44.610;44.078;2022-11-20T17:20:01;18.45;;;11.38;;
55756;SDS011;41676;44.610;44.078;2022-11-20T17:25:02;16.85;;;10.70;;
55756;SDS011;41676;44.610;44.078;2022-11-20T17:30:03;17.30;;;11.20;;
55756;SDS011;41676;44.610;44.078;2022-11-20T17:35:05;16.38;;;12.10;;
55756;SDS011;41676;44.610;44.078;2022-11-20T17:40:06;18.08;;;11.50;;
55756;SDS011;41676;44.610;44.078;2022-11-20T17:45:07;24.98;;;15.50;;
55756;SDS011;41676;44.610;44.078;2022-11-20T17:55:32;15.85;;;11.07;;
55756;SDS011;41676;44.610;44.078;2022-11-20T18:00:53;19.25;;;11.30;;
55756;SDS011;41676;44.610;44.078;2022-11-20T18:05:54;16.02;;;11.73;;
55756;SDS011;41676;44.610;44.078;2022-11-20T18:17:08;15.75;;;11.38;;
55756;SDS011;41676;44.610;44.078;2022-11-20T18:22:14;14.27;;;11.23;;
55756;SDS011;41676;44.610;44.078;2022-11-20T18:27:17;18.17;;;10.80;;
55756;SDS011;41676;44.610;44.078;2022-11-20T18:32:19;15.00;;;11.63;;
55756;SDS011;41676;44.610;44.078;2022-11-20T18:37:21;19.45;;;11.90;;
55756;SDS011;41676;44.610;44.078;2022-11-20T18:42:22;15.40;;;11.85;;
55756;SDS011;41676;44.610;44.078;2022-11-20T18:47:40;19.02;;;12.43;;
55756;SDS011;41676;44.610;44.078;2022-11-20T18:52:45;18.65;;;11.88;;
55756;SDS011;41676;44.610;44.078;2022-11-20T18:57:47;22.65;;;12.88;;
55756;SDS011;41676;44.610;44.078;2022-11-20T19:02:51;18.17;;;11.10;;
55756;SDS011;41676;44.610;44.078;2022-11-20T19:07:53;18.95;;;12.90;;
55756;SDS011;41676;44.610;44.078;2022-11-20T19:12:54;18.88;;;12.13;;
55756;SDS011;41676;44.610;44.078;2022-11-20T19:17:55;19.20;;;12.55;;
55756;SDS011;41676;44.610;44.078;2022-11-20T19:22:56;20.33;;;12.80;;
55756;SDS011;41676;44.610;44.078;2022-11-20T19:27:58;17.83;;;12.68;;
55756;SDS011;41676;44.610;44.078;2022-11-20T19:32:59;22.85;;;12.50;;
55756;SDS011;41676;44.610;44.078;2022-11-20T19:37:59;19.30;;;12.15;;
55756;SDS011;41676;44.610;44.078;2022-11-20T19:43:00;17.38;;;12.15;;
55756;SDS011;41676;44.610;44.078;2022-11-20T19:48:01;19.88;;;13.43;;
55756;SDS011;41676;44.610;44.078;2022-11-20T19:53:02;28.98;;;12.40;;
55756;SDS011;41676;44.610;44.078;2022-11-20T19:58:03;15.60;;;11.80;;
55756;SDS011;41676;44.610;44.078;2022-11-20T20:08:41;15.02;;;10.88;;
55756;SDS011;41676;44.610;44.078;2022-11-20T20:13:43;18.60;;;11.52;;
55756;SDS011;41676;44.610;44.078;2022-11-20T20:24:15;15.20;;;10.43;;
55756;SDS011;41676;44.610;44.078;2022-11-20T20:29:16;15.23;;;10.68;;
55756;SDS011;41676;44.610;44.078;2022-11-20T20:34:19;18.98;;;12.50;;
55756;SDS011;41676;44.610;44.078;2022-11-20T20:39:20;21.60;;;13.48;;
55756;SDS011;41676;44.610;44.078;2022-11-20T20:44:21;22.98;;;13.48;;
55756;SDS011;41676;44.610;44.078;2022-11-20T20:49:40;29.02;;;12.43;;
55756;SDS011;41676;44.610;44.078;2022-11-20T20:54:42;27.73;;;12.35;;
55756;SDS011;41676;44.610;44.078;2022-11-20T20:59:43;21.02;;;12.63;;
55756;SDS011;41676;44.610;44.078;2022-11-20T21:04:43;20.00;;;13.38;;
55756;SDS011;41676;44.610;44.078;2022-11-20T21:09:46;31.38;;;15.68;;
55756;SDS011;41676;44.610;44.078;2022-11-20T21:14:47;39.45;;;16.30;;
55756;SDS011;41676;44.610;44.078;2022-11-20T21:19:47;40.92;;;17.15;;
55756;SDS011;41676;44.610;44.078;2022-11-20T21:30:35;60.78;;;25.20;;
55756;SDS011;41676;44.610;44.078;2022-11-20T21:35:36;67.57;;;27.23;;
55756;SDS011;41676;44.610;44.078;2022-11-20T21:40:37;50.70;;;22.20;;
55756;SDS011;41676;44.610;44.078;2022-11-20T21:45:38;61.50;;;27.63;;
55756;SDS011;41676;44.610;44.078;2022-11-20T21:50:39;39.70;;;18.90;;
55756;SDS011;41676;44.610;44.078;2022-11-20T21:55:39;44.55;;;18.13;;
55756;SDS011;41676;44.610;44.078;2022-11-20T22:06:31;36.65;;;19.00;;
55756;SDS011;41676;44.610;44.078;2022-11-20T22:11:33;37.90;;;23.67;;
55756;SDS011;41676;44.610;44.078;2022-11-20T22:16:34;42.20;;;21.17;;
55756;SDS011;41676;44.610;44.078;2022-11-20T22:27:51;36.40;;;20.85;;
55756;SDS011;41676;44.610;44.078;2022-11-20T22:32:52;47.72;;;23.58;;
55756;SDS011;41676;44.610;44.078;2022-11-20T22:37:54;42.42;;;22.88;;
55756;SDS011;41676;44.610;44.078;2022-11-20T22:42:55;45.50;;;24.98;;
55756;SDS011;41676;44.610;44.078;2022-11-20T22:47:56;55.40;;;25.40;;
55756;SDS011;41676;44.610;44.078;2022-11-20T22:52:57;62.03;;;31.00;;
55756;SDS011;41676;44.610;44.078;2022-11-20T22:57:58;69.05;;;33.60;;
55756;SDS011;41676;44.610;44.078;2022-11-20T23:02:58;70.47;;;34.90;;
55756;SDS011;41676;44.610;44.078;2022-11-20T23:07:59;63.45;;;31.65;;
55756;SDS011;41676;44.610;44.078;2022-11-20T23:13:00;59.92;;;30.23;;
55756;SDS011;41676;44.610;44.078;2022-11-20T23:18:01;65.40;;;30.95;;
55756;SDS011;41676;44.610;44.078;2022-11-20T23:23:01;61.70;;;29.95;;
55756;SDS011;41676;44.610;44.078;2022-11-20T23:28:02;49.83;;;25.38;;
55756;SDS011;41676;44.610;44.078;2022-11-20T23:38:27;56.60;;;27.25;;
55756;SDS011;41676;44.610;44.078;2022-11-20T23:43:28;53.22;;;25.35;;
55756;SDS011;41676;44.610;44.078;2022-11-20T23:48:30;53.65;;;26.63;;
55756;SDS011;41676;44.610;44.078;2022-11-20T23:53:33;52.28;;;24.50;;
55756;SDS011;41676;44.610;44.078;2022-11-20T23:58:35;54.13;;;26.45;;
